Time;durP1;ratioP1;P1;durP2;ratioP2;P2;SDS_P1;SDS_P2;PMS_P1;PMS_P2;Temp;Humidity;BMP_temperature;BMP_pressure;BME280_temperature;BME280_humidity;BME280_pressure;Samples;Min_cycle;Max_cycle;Signal;HPM_P1;HPM_P2
2022/01/21 00:01:19;;;;;;;;;63.25;50.75;20.30;99.90;;;;;;5077311;28;8733;-70
2022/01/21 00:03:46;;;;;;;;;57.25;45.50;20.40;99.90;;;;;;5076939;28;8777;-71
2022/01/21 00:06:13;;;;;;;;;56.25;46.00;20.30;99.90;;;;;;5058897;28;8774;-71
2022/01/21 00:08:41;;;;;;;;;63.75;50.75;20.30;99.90;;;;;;5059315;28;8785;-71
2022/01/21 00:11:09;;;;;;;;;55.00;46.00;20.30;99.90;;;;;;5059326;28;8754;-72
2022/01/21 00:13:36;;;;;;;;;59.25;47.50;20.40;99.90;;;;;;5076520;28;8745;-71
2022/01/21 00:16:08;;;;;;;;;54.25;43.75;20.50;99.90;;;;;;5077141;28;8864;-71
2022/01/21 00:18:37;;;;;;;;;62.50;49.00;20.50;99.90;;;;;;5059011;28;9427;-71
2022/01/21 00:32:05;;;;;;;;;58.25;46.75;20.50;99.90;;;;;;5061188;28;8754;-71
2022/01/21 00:34:32;;;;;;;;;58.75;47.25;20.50;99.90;;;;;;5057424;28;8798;-71
2022/01/21 00:36:58;;;;;;;;;56.50;45.50;20.50;99.90;;;;;;5077048;28;8750;-71
2022/01/21 00:39:28;;;;;;;;;56.75;45.25;20.50;99.90;;;;;;5057574;28;8801;-70
2022/01/21 00:44:22;;;;;;;;;57.50;46.00;20.50;99.90;;;;;;5057020;28;8769;-70
2022/01/21 00:46:49;;;;;;;;;64.50;48.25;20.50;99.90;;;;;;5075223;28;8777;-70
2022/01/21 00:49:16;;;;;;;;;58.00;46.25;20.50;99.90;;;;;;5075537;28;8746;-71
2022/01/21 00:51:43;;;;;;;;;59.25;47.50;20.50;99.90;;;;;;5075249;28;9410;-70
2022/01/21 00:54:09;;;;;;;;;58.50;48.25;20.60;99.90;;;;;;5075424;28;8762;-70
2022/01/21 00:56:36;;;;;;;;;61.00;49.50;20.50;99.90;;;;;;5075254;28;8742;-69
2022/01/21 00:59:12;;;;;;;;;60.25;46.50;20.60;99.90;;;;;;5074959;28;8805;-69
2022/01/21 01:01:39;;;;;;;;;56.50;45.50;20.60;99.90;;;;;;5057094;28;8822;-69
2022/01/21 01:04:05;;;;;;;;;57.25;45.00;20.50;99.90;;;;;;5075840;28;8753;-69
2022/01/21 01:06:32;;;;;;;;;56.25;45.00;20.50;99.90;;;;;;5057360;28;8753;-70
2022/01/21 01:08:59;;;;;;;;;61.00;47.50;20.50;99.90;;;;;;5075991;28;8762;-70
2022/01/21 01:19:58;;;;;;;;;60.50;47.75;20.70;99.90;;;;;;5046302;28;8852;-69
2022/01/21 01:22:35;;;;;;;;;60.75;48.50;20.70;99.90;;;;;;5074946;28;8747;-67
2022/01/21 01:27:46;;;;;;;;;59.25;48.00;20.60;99.90;;;;;;5075537;28;8770;-70
2022/01/21 01:30:15;;;;;;;;;60.25;48.00;20.60;99.90;;;;;;5075132;28;8766;-70
2022/01/21 01:32:43;;;;;;;;;61.00;46.50;20.70;99.90;;;;;;5075203;28;8769;-70
2022/01/21 01:35:10;;;;;;;;;67.25;53.00;20.70;99.90;;;;;;5069959;28;8763;-69
2022/01/21 01:40:25;;;;;;;;;62.50;50.50;20.70;99.90;;;;;;5059507;28;9393;-69
2022/01/21 01:49:23;;;;;;;;;66.25;53.75;20.70;99.90;;;;;;5062142;28;8753;-69
2022/01/21 01:51:21;;;;;;;;;57.25;47.50;20.80;99.90;;;;;;5078641;28;8824;-69
2022/01/21 01:53:58;;;;;;;;;60.25;48.50;20.80;99.90;;;;;;5028267;28;8780;-70
2022/01/21 01:56:31;;;;;;;;;56.50;46.00;20.80;99.90;;;;;;5078758;28;8853;-70
2022/01/21 01:58:58;;;;;;;;;65.75;51.25;20.90;99.90;;;;;;5078898;28;8780;-70
2022/01/21 02:01:25;;;;;;;;;65.25;51.75;20.90;99.90;;;;;;5078191;28;8741;-68
2022/01/21 02:03:54;;;;;;;;;64.50;52.00;21.00;99.90;;;;;;5079185;28;8816;-69
2022/01/21 02:06:21;;;;;;;;;67.25;52.00;21.00;99.90;;;;;;5078736;28;8796;-70
2022/01/21 02:08:48;;;;;;;;;70.50;54.25;21.00;99.90;;;;;;5078308;28;8761;-70
2022/01/21 02:11:15;;;;;;;;;65.00;50.50;21.00;99.90;;;;;;5057200;28;8785;-69
2022/01/21 02:13:46;;;;;;;;;67.00;53.25;21.10;99.90;;;;;;5061209;28;8759;-69
2022/01/21 02:21:44;;;;;;;;;68.00;52.25;21.20;99.90;;;;;;5078592;28;8900;-69
2022/01/21 02:24:23;;;;;;;;;67.00;52.75;21.00;99.90;;;;;;5078247;28;8738;-69
2022/01/21 02:26:51;;;;;;;;;64.00;50.25;21.10;99.90;;;;;;5060870;28;9422;-70
2022/01/21 02:29:32;;;;;;;;;65.00;49.75;21.10;99.90;;;;;;5060028;28;8738;-69
2022/01/21 02:31:59;;;;;;;;;62.25;49.25;21.20;99.90;;;;;;5062417;28;8746;-70
2022/01/21 02:34:26;;;;;;;;;62.25;49.50;21.10;99.90;;;;;;5077131;28;8897;-70
2022/01/21 02:36:53;;;;;;;;;65.50;51.25;21.10;99.90;;;;;;5020785;28;8741;-70
2022/01/21 02:39:20;;;;;;;;;66.00;51.50;21.20;99.90;;;;;;5053963;28;8764;-69
2022/01/21 02:41:47;;;;;;;;;66.75;52.25;21.10;99.90;;;;;;5023396;28;8776;-69
2022/01/21 02:44:16;;;;;;;;;66.50;53.25;21.10;99.90;;;;;;5036334;28;8848;-73
2022/01/21 02:46:44;;;;;;;;;63.50;50.25;21.10;99.90;;;;;;5033675;28;8801;-70
2022/01/21 02:49:11;;;;;;;;;64.25;51.00;21.10;99.90;;;;;;5034614;28;8770;-71
2022/01/21 02:51:38;;;;;;;;;66.00;50.75;21.20;99.90;;;;;;5053167;28;8811;-70
2022/01/21 02:54:05;;;;;;;;;68.50;53.75;21.20;99.90;;;;;;5057097;28;9556;-69
2022/01/21 02:56:33;;;;;;;;;66.50;51.25;21.30;99.90;;;;;;5055909;28;9416;-69
2022/01/21 02:59:00;;;;;;;;;69.00;51.50;21.30;99.90;;;;;;5038976;28;8834;-67
2022/01/21 03:01:26;;;;;;;;;62.25;50.50;21.30;99.90;;;;;;5056925;28;8743;-68
2022/01/21 03:03:54;;;;;;;;;66.25;50.50;21.40;99.90;;;;;;5057711;28;8724;-67
2022/01/21 03:06:22;;;;;;;;;60.50;48.75;21.50;99.90;;;;;;5023162;28;8824;-70
2022/01/21 03:08:49;;;;;;;;;64.00;50.25;21.50;99.90;;;;;;5039806;28;8801;-67
2022/01/21 03:11:16;;;;;;;;;63.25;50.25;21.50;99.90;;;;;;5039622;28;8862;-66
2022/01/21 03:13:43;;;;;;;;;56.75;46.25;21.40;99.90;;;;;;5057273;28;8751;-65
2022/01/21 03:16:10;;;;;;;;;65.75;50.25;21.40;99.90;;;;;;5057985;28;8869;-66
2022/01/21 03:18:37;;;;;;;;;58.75;46.25;21.50;99.90;;;;;;5057443;28;8767;-66
2022/01/21 03:21:03;;;;;;;;;59.50;46.50;21.60;99.90;;;;;;5057020;28;8987;-65
2022/01/21 03:23:30;;;;;;;;;65.50;49.50;21.80;99.90;;;;;;5057507;28;8798;-65
2022/01/21 03:25:57;;;;;;;;;62.25;48.75;21.90;99.90;;;;;;5057065;28;8746;-63
2022/01/21 03:28:24;;;;;;;;;57.00;45.75;21.90;99.90;;;;;;5056253;28;8751;-64
2022/01/21 03:30:55;;;;;;;;;53.50;43.75;21.80;99.90;;;;;;5057680;28;8716;-70
2022/01/21 03:33:22;;;;;;;;;56.75;43.75;21.90;99.90;;;;;;5056427;28;8778;-72
2022/01/21 03:35:50;;;;;;;;;57.50;47.25;22.00;99.90;;;;;;5054736;28;8755;-69
2022/01/21 03:38:18;;;;;;;;;57.00;46.75;22.20;99.90;;;;;;5038832;28;9412;-71
2022/01/21 03:40:45;;;;;;;;;47.25;38.50;22.40;99.90;;;;;;5038908;28;8791;-69
2022/01/21 03:43:12;;;;;;;;;55.50;46.00;22.50;99.90;;;;;;5056529;28;8732;-64
2022/01/21 03:45:39;;;;;;;;;55.00;44.50;22.50;99.90;;;;;;5056608;28;8759;-65
2022/01/21 03:48:06;;;;;;;;;55.25;42.00;22.50;99.90;;;;;;5056167;28;8758;-66
2022/01/21 03:50:33;;;;;;;;;56.25;46.75;22.50;99.90;;;;;;5054902;28;8758;-73
2022/01/21 03:53:00;;;;;;;;;48.25;37.25;22.60;99.90;;;;;;5055617;28;8787;-65
2022/01/21 03:55:27;;;;;;;;;50.00;39.50;22.60;99.90;;;;;;5056797;28;8751;-62
2022/01/21 03:57:54;;;;;;;;;53.00;44.50;22.60;99.90;;;;;;5056428;28;8716;-63
2022/01/21 04:00:24;;;;;;;;;46.25;38.50;22.50;99.90;;;;;;5055552;28;8795;-64
2022/01/21 04:02:51;;;;;;;;;49.00;38.50;22.50;99.90;;;;;;5038905;28;8770;-69
2022/01/21 04:05:18;;;;;;;;;44.50;37.75;22.40;99.90;;;;;;5056013;28;9503;-68
2022/01/21 04:07:44;;;;;;;;;34.50;32.00;22.60;99.90;;;;;;5021703;28;8821;-71
2022/01/21 04:10:11;;;;;;;;;43.75;37.00;22.70;99.90;;;;;;5057191;28;8736;-71
2022/01/21 04:12:38;;;;;;;;;46.50;37.00;22.80;99.90;;;;;;5038461;28;8743;-70
2022/01/21 04:15:05;;;;;;;;;45.75;38.25;23.10;99.90;;;;;;5055238;28;8750;-69
2022/01/21 04:17:32;;;;;;;;;47.00;36.75;23.40;99.90;;;;;;5037564;28;8891;-70
2022/01/21 04:19:59;;;;;;;;;51.25;41.50;23.50;99.90;;;;;;5055567;28;8764;-62
2022/01/21 04:22:26;;;;;;;;;38.75;34.50;23.50;99.90;;;;;;5056307;28;8756;-63
2022/01/21 04:24:54;;;;;;;;;47.50;38.25;23.30;99.90;;;;;;5056300;28;8820;-63
2022/01/21 04:27:21;;;;;;;;;45.00;37.00;23.20;99.90;;;;;;5053918;28;8763;-67
2022/01/21 04:29:48;;;;;;;;;46.25;38.50;23.30;99.90;;;;;;5055724;28;8740;-68
2022/01/21 04:32:15;;;;;;;;;42.75;36.25;23.20;99.90;;;;;;5020920;28;8767;-67
2022/01/21 04:34:42;;;;;;;;;47.75;38.25;23.10;99.90;;;;;;5055532;28;9118;-68
2022/01/21 04:37:11;;;;;;;;;42.25;36.25;23.20;99.90;;;;;;5055849;28;8739;-68
2022/01/21 04:39:51;;;;;;;;;43.50;37.00;23.40;99.90;;;;;;5055359;28;8798;-68
2022/01/21 04:47:35;;;;;;;;;48.75;40.00;23.60;99.90;;;;;;5056132;28;8962;-68
2022/01/21 04:50:09;;;;;;;;;48.00;37.25;23.60;99.90;;;;;;5037916;28;9508;-67
2022/01/21 04:52:36;;;;;;;;;49.25;40.75;23.40;99.90;;;;;;5054942;28;8863;-67
2022/01/21 04:55:04;;;;;;;;;49.50;41.25;23.30;99.90;;;;;;5055171;28;8850;-67
2022/01/21 04:57:31;;;;;;;;;47.25;40.00;23.30;99.90;;;;;;5054689;28;8893;-67
2022/01/21 04:59:57;;;;;;;;;48.50;39.50;23.40;99.90;;;;;;5054456;28;8763;-67
2022/01/21 05:02:26;;;;;;;;;49.75;40.50;23.40;99.90;;;;;;5056024;28;8771;-67
2022/01/21 05:04:53;;;;;;;;;47.25;39.50;23.50;99.90;;;;;;5056122;28;8775;-68
2022/01/21 05:07:23;;;;;;;;;49.25;39.50;23.60;99.90;;;;;;5056428;28;8768;-67
2022/01/21 05:09:50;;;;;;;;;49.25;38.75;23.90;99.90;;;;;;5039164;28;8753;-68
2022/01/21 05:12:20;;;;;;;;;43.50;37.25;24.20;99.90;;;;;;5040077;28;9455;-68
2022/01/21 05:17:19;;;;;;;;;44.25;35.50;24.40;99.90;;;;;;5059121;28;8874;-68
2022/01/21 05:19:46;;;;;;;;;39.50;35.50;24.60;99.90;;;;;;5059103;28;8740;-68
2022/01/21 05:22:13;;;;;;;;;40.75;34.75;24.60;99.90;;;;;;5059691;28;8758;-67
2022/01/21 05:24:40;;;;;;;;;41.75;33.50;24.60;99.90;;;;;;5058236;28;9357;-67
2022/01/21 05:27:07;;;;;;;;;38.50;34.25;24.50;99.90;;;;;;5059111;28;8890;-68
2022/01/21 05:29:34;;;;;;;;;39.75;34.50;24.70;99.90;;;;;;5040890;28;8807;-68
2022/01/21 05:32:04;;;;;;;;;32.75;31.50;24.80;99.90;;;;;;5059038;28;8762;-68
2022/01/21 05:34:31;;;;;;;;;36.50;33.50;25.00;99.90;;;;;;5058707;28;9463;-69
2022/01/21 05:36:58;;;;;;;;;39.25;33.25;25.00;99.90;;;;;;5038430;28;8761;-68
2022/01/21 05:39:25;;;;;;;;;30.00;24.50;25.10;99.90;;;;;;5037355;28;8777;-68
2022/01/21 05:41:53;;;;;;;;;35.25;30.50;25.30;99.90;;;;;;5037963;28;8789;-68
2022/01/21 05:47:09;;;;;;;;;28.00;26.50;25.60;99.90;;;;;;5027822;28;8893;-67
2022/01/21 05:49:37;;;;;;;;;35.75;31.25;25.60;99.90;;;;;;5037954;28;8753;-68
2022/01/21 05:52:50;;;;;;;;;27.50;26.75;25.40;99.90;;;;;;5059667;28;8751;-67
2022/01/21 05:54:51;;;;;;;;;33.00;31.00;25.20;99.90;;;;;;5043961;28;8937;-67
2022/01/21 05:57:19;;;;;;;;;35.75;29.75;25.30;99.90;;;;;;5040836;28;9468;-67
2022/01/21 05:59:49;;;;;;;;;33.50;31.00;25.30;99.90;;;;;;5058155;28;8798;-67
2022/01/21 06:02:16;;;;;;;;;32.75;30.25;25.40;99.90;;;;;;5057255;28;8774;-67
2022/01/21 06:04:44;;;;;;;;;34.00;29.75;25.50;99.90;;;;;;5056880;28;8763;-67
2022/01/21 06:07:11;;;;;;;;;28.25;26.00;25.40;99.90;;;;;;5058516;28;9426;-68
2022/01/21 06:09:38;;;;;;;;;33.50;30.50;25.60;99.90;;;;;;5038617;28;8759;-70
2022/01/21 06:12:08;;;;;;;;;32.50;29.50;25.80;99.90;;;;;;5056780;28;8787;-67
2022/01/21 06:14:36;;;;;;;;;32.25;29.00;25.80;99.90;;;;;;5056392;28;8811;-67
2022/01/21 06:17:04;;;;;;;;;36.50;31.25;25.70;99.90;;;;;;5058205;28;8913;-67
2022/01/21 06:19:30;;;;;;;;;37.20;30.40;25.70;99.90;;;;;;5057662;28;8953;-68
2022/01/21 06:21:57;;;;;;;;;31.00;28.60;25.80;99.90;;;;;;5020381;28;8777;-67
2022/01/21 06:24:24;;;;;;;;;31.00;29.00;25.80;99.90;;;;;;5037823;28;8750;-67
2022/01/21 06:26:51;;;;;;;;;33.75;32.50;25.80;99.90;;;;;;5038014;28;8820;-66
2022/01/21 06:29:17;;;;;;;;;29.25;29.25;25.80;99.90;;;;;;5037902;28;9467;-64
2022/01/21 06:31:44;;;;;;;;;32.75;31.00;25.80;99.90;;;;;;5037867;28;8754;-69
2022/01/21 06:34:11;;;;;;;;;35.50;29.50;25.80;99.90;;;;;;5038518;28;8735;-69
2022/01/21 06:36:38;;;;;;;;;32.00;31.00;25.90;99.90;;;;;;5054534;28;8751;-70
2022/01/21 06:39:04;;;;;;;;;22.50;20.50;25.90;99.90;;;;;;5056043;28;8767;-66
2022/01/21 06:41:32;;;;;;;;;34.75;31.75;25.90;99.90;;;;;;5057674;28;8767;-72
2022/01/21 06:43:59;;;;;;;;;29.00;28.25;26.00;99.90;;;;;;5056186;28;9389;-62
2022/01/21 06:46:28;;;;;;;;;33.50;30.75;26.00;99.90;;;;;;5056637;28;8743;-64
2022/01/21 06:48:55;;;;;;;;;38.50;31.75;26.00;99.90;;;;;;5057379;28;8740;-65
2022/01/21 06:51:21;;;;;;;;;32.50;29.00;26.10;99.90;;;;;;5055843;28;8769;-64
2022/01/21 06:53:48;;;;;;;;;31.00;29.25;26.10;99.90;;;;;;5056311;28;8763;-65
2022/01/21 06:56:15;;;;;;;;;25.00;22.00;26.00;99.90;;;;;;5055698;28;8805;-64
2022/01/21 06:58:42;;;;;;;;;34.50;31.25;26.10;99.90;;;;;;5056627;28;8724;-65
2022/01/21 07:01:08;;;;;;;;;30.50;27.75;26.30;99.90;;;;;;5039853;28;8739;-65
2022/01/21 07:03:35;;;;;;;;;30.75;28.75;26.50;99.90;;;;;;5055265;28;8747;-65
2022/01/21 07:06:02;;;;;;;;;25.50;25.50;26.50;99.90;;;;;;5057075;28;9297;-64
2022/01/21 07:08:29;;;;;;;;;25.75;25.00;26.60;99.90;;;;;;5055516;28;8743;-64
2022/01/21 07:10:58;;;;;;;;;31.50;28.25;26.50;99.90;;;;;;5057061;28;8755;-71
2022/01/21 07:13:25;;;;;;;;;30.75;27.25;26.50;99.90;;;;;;5055334;28;8837;-65
2022/01/21 07:15:52;;;;;;;;;28.75;26.00;26.70;99.90;;;;;;5057334;28;8746;-62
2022/01/21 07:18:18;;;;;;;;;31.00;26.75;26.70;99.90;;;;;;5039305;28;8719;-63
2022/01/21 07:20:45;;;;;;;;;31.75;27.00;26.60;99.90;;;;;;5057073;28;8763;-65
2022/01/21 07:23:12;;;;;;;;;30.00;28.00;26.60;99.90;;;;;;5057104;28;9420;-65
2022/01/21 07:25:39;;;;;;;;;32.50;29.00;26.60;99.90;;;;;;5055718;28;9808;-66
2022/01/21 07:28:06;;;;;;;;;27.00;24.75;26.70;99.90;;;;;;5039489;28;8794;-64
2022/01/21 07:30:32;;;;;;;;;26.50;26.50;26.70;99.90;;;;;;5056916;28;8779;-63
2022/01/21 07:32:59;;;;;;;;;28.75;23.00;26.70;99.90;;;;;;5055835;28;8759;-63
2022/01/21 07:35:26;;;;;;;;;28.25;27.50;26.70;99.90;;;;;;5055163;28;8787;-63
2022/01/21 07:37:53;;;;;;;;;23.25;22.75;26.70;99.90;;;;;;5039201;28;8851;-63
2022/01/21 07:40:19;;;;;;;;;26.50;22.50;26.80;99.90;;;;;;5057373;28;8812;-66
2022/01/21 07:42:46;;;;;;;;;28.00;24.00;27.00;99.90;;;;;;5057281;28;9862;-64
2022/01/21 07:45:13;;;;;;;;;32.50;26.25;27.10;99.90;;;;;;5056772;28;8791;-64
2022/01/21 07:47:39;;;;;;;;;23.50;21.75;27.20;99.90;;;;;;5021792;28;8782;-65
2022/01/21 07:50:07;;;;;;;;;24.00;23.00;27.20;99.90;;;;;;5056602;28;8826;-64
2022/01/21 07:52:34;;;;;;;;;27.50;25.50;27.40;99.90;;;;;;5056372;28;8744;-64
2022/01/21 07:55:00;;;;;;;;;27.00;22.75;27.50;99.90;;;;;;5056173;28;8795;-66
2022/01/21 07:57:27;;;;;;;;;25.40;21.60;27.60;99.90;;;;;;5056478;28;9423;-67
2022/01/21 07:59:54;;;;;;;;;20.40;18.80;27.60;99.90;;;;;;5056821;28;8817;-67
2022/01/21 08:02:23;;;;;;;;;22.20;21.20;27.70;99.90;;;;;;5054678;28;8744;-66
2022/01/21 08:04:50;;;;;;;;;16.25;15.00;27.80;99.90;;;;;;5055673;28;8756;-66
2022/01/21 08:07:18;;;;;;;;;23.20;21.00;27.80;99.90;;;;;;5056262;28;9407;-66
2022/01/21 08:09:44;;;;;;;;;21.00;19.25;27.70;99.90;;;;;;5038618;28;8767;-67
2022/01/21 08:12:11;;;;;;;;;24.75;21.00;27.80;99.90;;;;;;5055524;28;8751;-67
2022/01/21 08:14:38;;;;;;;;;21.75;21.25;28.00;99.90;;;;;;5056866;28;8911;-67
2022/01/21 08:17:06;;;;;;;;;20.00;19.00;28.00;99.90;;;;;;5056327;28;8794;-66
2022/01/21 08:19:33;;;;;;;;;19.75;16.75;27.80;99.90;;;;;;5038517;28;9447;-67
2022/01/21 08:22:00;;;;;;;;;21.50;21.25;27.80;99.90;;;;;;5057064;28;8743;-67
2022/01/21 08:24:26;;;;;;;;;19.40;18.00;27.70;99.90;;;;;;5056041;28;8794;-67
2022/01/21 08:26:53;;;;;;;;;20.20;18.80;27.50;99.90;;;;;;5055470;28;8977;-68
2022/01/21 08:29:20;;;;;;;;;21.00;19.50;27.40;99.90;;;;;;5054258;28;8860;-66
2022/01/21 08:31:47;;;;;;;;;20.75;20.75;27.30;99.90;;;;;;5055505;28;8759;-67
2022/01/21 08:34:14;;;;;;;;;20.00;19.00;27.20;99.90;;;;;;5038536;28;8736;-67
2022/01/21 08:36:41;;;;;;;;;22.50;20.75;27.10;99.90;;;;;;5038373;28;8739;-67
2022/01/21 08:39:07;;;;;;;;;21.00;20.20;27.10;99.90;;;;;;5056481;28;8739;-67
2022/01/21 08:41:34;;;;;;;;;24.50;20.25;26.90;99.90;;;;;;5055945;28;8876;-67
2022/01/21 08:44:01;;;;;;;;;23.50;21.25;26.80;99.90;;;;;;5055957;28;8774;-67
2022/01/21 08:46:28;;;;;;;;;19.25;19.00;26.50;99.90;;;;;;5057675;28;8735;-66
2022/01/21 08:48:54;;;;;;;;;29.25;23.00;26.20;99.90;;;;;;5061333;28;8817;-67
2022/01/21 08:51:28;;;;;;;;;38.25;26.25;25.70;99.90;;;;;;5058786;28;8754;-65
2022/01/21 08:53:55;;;;;;;;;21.60;15.40;24.60;99.90;;;;;;5060704;28;8743;-70
2022/01/21 08:56:22;;;;;;;;;16.80;15.20;20.50;99.90;;;;;;5042950;28;9392;-71
2022/01/21 08:58:49;;;;;;;;;21.00;20.25;19.70;99.90;;;;;;5060487;28;8763;-70
2022/01/21 09:01:16;;;;;;;;;15.25;15.25;19.90;99.90;;;;;;5059812;28;8752;-70
2022/01/21 09:03:43;;;;;;;;;13.75;12.00;20.20;99.90;;;;;;5059082;28;8751;-69
2022/01/21 09:06:12;;;;;;;;;24.75;22.25;20.60;99.90;;;;;;5042484;28;8771;-69
2022/01/21 09:08:40;;;;;;;;;21.25;21.00;20.90;99.90;;;;;;5060072;28;8862;-69
2022/01/21 09:11:07;;;;;;;;;24.50;21.75;21.10;99.90;;;;;;5060484;28;10097;-73
2022/01/21 09:13:39;;;;;;;;;24.20;18.20;21.30;99.90;;;;;;5058745;28;8700;-71
2022/01/21 09:16:06;;;;;;;;;26.25;20.75;21.20;99.90;;;;;;5059338;28;9388;-72
2022/01/21 09:18:45;;;;;;;;;25.25;22.00;21.30;99.90;;;;;;5058899;28;9473;-73
2022/01/21 09:21:15;;;;;;;;;21.40;19.80;21.40;99.90;;;;;;5059839;28;8747;-72
2022/01/21 09:23:42;;;;;;;;;25.60;22.00;21.50;99.90;;;;;;5058872;28;8736;-74
2022/01/21 09:26:09;;;;;;;;;25.20;25.20;21.50;99.90;;;;;;5058968;28;8728;-75
2022/01/21 10:13:53;;;;;;;;;25.80;21.00;21.70;99.90;;;;;;5104156;27;13564;-71
2022/01/21 10:16:20;;;;;;;;;26.20;21.60;22.40;99.90;;;;;;5069684;28;8752;-69
2022/01/21 10:19:07;;;;;;;;;19.60;18.20;22.40;99.90;;;;;;5052740;28;8767;-70
2022/01/21 10:21:36;;;;;;;;;24.80;22.40;22.50;99.90;;;;;;5053806;28;8726;-70
2022/01/21 10:24:07;;;;;;;;;25.00;23.20;22.60;99.90;;;;;;5054183;28;8765;-69
2022/01/21 10:26:34;;;;;;;;;15.00;14.33;22.70;99.90;;;;;;5053840;28;8847;-69
2022/01/21 10:29:01;;;;;;;;;26.75;25.25;22.90;99.90;;;;;;5052750;28;8773;-70
2022/01/21 10:31:28;;;;;;;;;22.50;19.50;23.00;99.90;;;;;;5053446;28;8743;-69
2022/01/21 10:33:56;;;;;;;;;28.50;26.75;22.80;99.90;;;;;;5054140;28;8864;-70
2022/01/21 10:36:29;;;;;;;;;25.50;23.50;22.80;99.90;;;;;;5038652;28;8744;-69
2022/01/21 10:39:09;;;;;;;;;21.50;20.00;22.80;99.90;;;;;;5034125;28;8769;-70
2022/01/21 10:41:39;;;;;;;;;29.00;24.50;22.90;99.90;;;;;;5002264;28;9506;-70
2022/01/21 10:44:16;;;;;;;;;25.60;23.00;23.00;99.90;;;;;;5033433;28;8957;-69
2022/01/21 10:46:47;;;;;;;;;26.40;23.20;23.00;99.90;;;;;;5032217;28;8729;-69
2022/01/21 10:49:14;;;;;;;;;27.40;22.60;22.80;99.90;;;;;;5032661;28;9525;-69
2022/01/21 10:51:48;;;;;;;;;27.00;25.40;22.70;99.90;;;;;;5040644;28;8743;-70
2022/01/21 10:54:23;;;;;;;;;32.80;29.00;22.80;99.90;;;;;;5052008;28;8727;-69
2022/01/21 10:57:15;;;;;;;;;31.80;27.20;22.80;99.90;;;;;;5053571;28;8773;-69
2022/01/21 11:00:06;;;;;;;;;32.80;31.00;22.70;99.90;;;;;;5051850;28;8924;-68
2022/01/21 11:02:45;;;;;;;;;40.00;32.75;22.60;99.90;;;;;;5051797;28;8765;-68
2022/01/21 11:05:17;;;;;;;;;34.75;28.25;22.60;99.90;;;;;;5047995;28;8781;-68
2022/01/21 11:08:14;;;;;;;;;35.25;30.75;22.40;99.90;;;;;;5016157;28;8756;-68
2022/01/21 11:10:48;;;;;;;;;26.60;26.20;22.30;99.90;;;;;;5033482;28;8780;-68
2022/01/21 11:13:18;;;;;;;;;35.25;30.00;22.30;99.90;;;;;;5033805;28;8816;-68
2022/01/21 11:15:56;;;;;;;;;42.75;35.50;22.30;99.90;;;;;;5033405;28;8775;-68
2022/01/21 11:18:24;;;;;;;;;46.75;37.75;22.20;99.90;;;;;;5033323;28;8776;-68
2022/01/21 11:20:57;;;;;;;;;53.25;43.25;22.30;99.90;;;;;;5025994;28;8790;-68
2022/01/21 11:23:26;;;;;;;;;55.25;45.50;22.30;99.90;;;;;;5033080;28;8762;-68
2022/01/21 11:25:56;;;;;;;;;57.50;45.25;22.30;99.90;;;;;;5022197;28;9395;-68
2022/01/21 11:28:27;;;;;;;;;54.00;44.00;22.20;99.90;;;;;;5039960;28;8749;-68
2022/01/21 11:30:54;;;;;;;;;36.00;33.50;22.20;99.90;;;;;;5040213;28;9399;-69
2022/01/21 11:33:21;;;;;;;;;24.75;21.75;22.10;99.90;;;;;;5039804;28;8774;-68
2022/01/21 11:35:49;;;;;;;;;30.75;27.50;21.90;99.90;;;;;;5029537;28;8773;-69
2022/01/21 11:38:16;;;;;;;;;30.25;28.75;21.60;99.90;;;;;;5019829;28;8753;-69
2022/01/21 11:40:42;;;;;;;;;31.50;28.75;21.60;99.90;;;;;;5019459;28;8741;-69
2022/01/21 11:43:09;;;;;;;;;28.25;27.50;21.50;99.90;;;;;;5018778;28;8818;-68
2022/01/21 11:50:43;;;;;;;;;34.75;28.25;21.40;99.90;;;;;;5027532;28;8762;-67
2022/01/21 11:53:10;;;;;;;;;32.25;28.25;21.40;99.90;;;;;;5038139;28;8790;-67
2022/01/21 11:55:40;;;;;;;;;30.75;23.75;21.50;99.90;;;;;;5039146;28;8766;-67
2022/01/21 11:58:14;;;;;;;;;29.25;27.25;21.50;99.90;;;;;;5038551;28;8800;-67
2022/01/21 12:00:41;;;;;;;;;27.75;26.25;21.30;99.90;;;;;;5039102;28;8758;-67
2022/01/21 12:03:08;;;;;;;;;28.40;28.40;21.10;99.90;;;;;;5022335;28;8884;-67
2022/01/21 12:05:35;;;;;;;;;27.20;22.40;20.90;99.90;;;;;;5037624;28;9443;-66
2022/01/21 12:08:05;;;;;;;;;30.00;25.80;20.90;99.90;;;;;;5038280;28;8763;-67
2022/01/21 12:10:42;;;;;;;;;26.40;25.20;21.00;99.90;;;;;;5038549;28;8812;-66
2022/01/21 12:13:21;;;;;;;;;23.80;22.80;21.20;99.90;;;;;;5039167;28;8834;-67
2022/01/21 12:16:07;;;;;;;;;25.25;22.00;21.00;99.90;;;;;;5038537;28;8793;-66
2022/01/21 12:21:44;;;;;;;;;25.00;21.75;20.90;99.90;;;;;;5011685;28;8824;-66
2022/01/21 12:24:11;;;;;;;;;30.75;28.50;20.80;99.90;;;;;;5018973;28;8788;-66
2022/01/21 12:26:55;;;;;;;;;29.00;28.75;20.70;99.90;;;;;;5017009;28;8907;-66
2022/01/21 12:29:23;;;;;;;;;29.00;24.75;20.70;99.90;;;;;;5018689;28;8760;-66
2022/01/21 12:31:57;;;;;;;;;23.75;20.50;20.70;99.90;;;;;;5018373;28;8831;-66
2022/01/21 12:34:24;;;;;;;;;24.00;20.50;20.70;99.90;;;;;;5018709;28;8741;-65
2022/01/21 12:37:12;;;;;;;;;25.75;22.25;20.80;99.90;;;;;;5031340;28;10987;-66
2022/01/21 12:39:47;;;;;;;;;32.00;27.75;20.80;99.90;;;;;;5017424;28;8765;-66
2022/01/21 12:42:32;;;;;;;;;35.00;31.00;20.80;99.90;;;;;;5018329;28;9221;-66
2022/01/21 12:45:18;;;;;;;;;40.50;32.25;20.90;99.90;;;;;;5018678;28;8838;-66
2022/01/21 12:47:46;;;;;;;;;32.75;32.00;20.90;99.90;;;;;;5016896;28;8903;-66
2022/01/21 12:50:37;;;;;;;;;33.60;28.60;20.90;99.90;;;;;;5022146;28;8789;-66
2022/01/21 12:53:17;;;;;;;;;31.75;27.00;20.90;99.90;;;;;;5038159;28;8734;-66
2022/01/21 12:55:56;;;;;;;;;30.60;26.20;20.90;99.90;;;;;;5037952;28;8779;-66
2022/01/21 12:58:42;;;;;;;;;30.40;28.00;20.80;99.90;;;;;;5038545;28;8754;-66
2022/01/21 13:01:10;;;;;;;;;35.00;26.40;20.80;99.90;;;;;;5038455;28;8774;-66
2022/01/21 13:03:55;;;;;;;;;36.75;33.50;20.80;99.90;;;;;;5037349;28;8782;-66
2022/01/21 13:06:31;;;;;;;;;39.25;32.75;20.90;99.90;;;;;;5037276;28;8781;-65
2022/01/21 13:09:05;;;;;;;;;41.75;34.00;20.90;99.90;;;;;;5037884;28;8750;-65
2022/01/21 13:11:34;;;;;;;;;34.75;31.25;20.90;99.90;;;;;;5035643;28;8754;-65
2022/01/21 13:17:04;;;;;;;;;26.25;26.25;20.90;99.90;;;;;;5037744;28;8864;-66
2022/01/21 13:19:52;;;;;;;;;29.50;27.00;20.90;99.90;;;;;;5037458;28;8745;-65
2022/01/21 13:22:23;;;;;;;;;31.75;25.25;20.90;99.90;;;;;;5017668;28;8769;-65
2022/01/21 13:24:57;;;;;;;;;25.25;24.25;20.90;99.90;;;;;;5018101;28;8826;-66
2022/01/21 13:27:24;;;;;;;;;29.50;25.25;21.00;99.90;;;;;;5032537;28;8764;-66
2022/01/21 13:29:53;;;;;;;;;29.25;24.75;21.00;99.90;;;;;;5017346;28;8760;-66
2022/01/21 13:32:23;;;;;;;;;25.25;24.50;21.00;99.90;;;;;;4999891;28;8792;-65
2022/01/21 13:34:50;;;;;;;;;25.50;22.50;21.00;99.90;;;;;;5019440;28;8769;-66
2022/01/21 13:37:18;;;;;;;;;29.00;25.75;21.10;99.90;;;;;;5038403;28;8754;-65
2022/01/21 13:39:47;;;;;;;;;26.50;21.00;21.00;99.90;;;;;;5052756;28;8959;-65
2022/01/21 13:42:19;;;;;;;;;29.25;26.00;21.10;99.90;;;;;;5028355;28;8800;-66
2022/01/21 13:44:54;;;;;;;;;24.75;24.00;21.10;99.90;;;;;;5037559;28;8788;-65
2022/01/21 13:47:37;;;;;;;;;32.25;25.25;21.10;99.90;;;;;;5036386;28;8770;-65
2022/01/21 13:50:13;;;;;;;;;24.75;22.00;21.10;99.90;;;;;;5035223;28;9443;-65
2022/01/21 13:52:41;;;;;;;;;27.25;25.00;21.00;99.90;;;;;;5037247;28;8812;-65
2022/01/21 13:55:11;;;;;;;;;25.25;24.00;20.90;99.90;;;;;;5037784;28;8892;-65
2022/01/21 13:57:44;;;;;;;;;26.25;24.50;21.00;99.90;;;;;;5036870;28;8786;-66
2022/01/21 14:00:11;;;;;;;;;31.00;28.75;20.90;99.90;;;;;;5019095;28;8855;-65
2022/01/21 14:02:38;;;;;;;;;26.00;21.25;20.90;99.90;;;;;;5036582;28;8801;-66
2022/01/21 14:05:05;;;;;;;;;21.00;19.00;20.90;99.90;;;;;;5031537;28;8835;-65
2022/01/21 14:07:33;;;;;;;;;30.50;24.50;20.90;99.90;;;;;;5015701;28;9270;-66
2022/01/21 14:10:06;;;;;;;;;23.75;23.00;21.00;99.90;;;;;;5017516;28;8811;-65
2022/01/21 14:12:33;;;;;;;;;29.75;26.25;21.00;99.90;;;;;;5015247;28;8871;-66
2022/01/21 14:15:00;;;;;;;;;30.00;26.25;21.00;99.90;;;;;;5017105;28;8764;-66
2022/01/21 14:17:27;;;;;;;;;25.40;23.40;21.10;99.90;;;;;;4999118;28;8800;-65
2022/01/21 14:19:55;;;;;;;;;28.50;25.50;21.10;99.90;;;;;;5018304;28;8764;-65
2022/01/21 14:22:22;;;;;;;;;32.00;27.25;21.20;99.90;;;;;;5037513;28;8766;-66
2022/01/21 14:24:50;;;;;;;;;36.00;29.00;21.30;99.90;;;;;;5036319;28;8844;-65
2022/01/21 14:27:28;;;;;;;;;16.50;15.50;21.40;99.90;;;;;;5035140;28;8807;-64
2022/01/21 14:30:00;;;;;;;;;22.00;19.50;21.60;99.90;;;;;;5036549;28;9507;-66
2022/01/21 14:32:38;;;;;;;;;29.75;26.50;21.70;99.90;;;;;;5036218;28;8907;-65